Ana Sayfa
METAR-TAF:

METAR-TAF

Havaalanları :

College Park, Maryland, Amerika Birleşik Devletleri

Enlem: 38-58-50N, Boylam: 076-55-20W, yükseklik: 15 m

Güncel hava durumu gözlemi

Rapor saat 23:00 UTC de 39 dakika önce yapıldı.
Rüzgar kuzey/kuzeybatıdan 4 kt
Sıcaklık 29°C
Nem 48%
Basınç 1013 hPa
Görüş mesafesi: 16.1 km
Açık gökyüzü

METAR: KCGS 112300Z AUTO 33004KT 10SM CLR 29/17 A2991 RMK AO2 T02890172

Saat: 19:39 (23:39 UTC)


TAF: eksik

4.000'den fazla havaalanı için hava durumu gözlemleri ve tahminleri (METAR ve TAF raporları).

Kullanılabilir istasyonlar harita üzerinde sarı ve kırmızı noktalarla gösterilir.

İstasyonun adını görmek için fareyi noktanın üzerinde gezdirin.

Sonrasında hava gözlem ve tahminlerini görmek için tıklayın.

Haritayı değiştirmek için: yaklaştırmak için siyah artı işaretli yeşil düğmeye ve uzaklaştırmak için de eksi işaretli düğmeye hızla tıklayın; bitişik haritalar için yeşil okları kullanın.


METAR-TAF: